« 定点 富山空港他 2024/4/13 sat | トップページ | 定点 富山空港 2024/4/15 mon »

2024/04/14

定点 富山空港 2024/4/14 sun

今日も良いお天気。

RJNT 140000Z 33004KT 280V360 CAVOK 17/09 Q1022

20240414_rjnt_00oelpc

AUA51 LOWW-RJAA OE-LPC B777-2Z0ER

陽射しは強いですが、上空は綺麗に雲を引いています。

20240414_rjnt_01hl8300

RJNT 140100Z VRB02KT CAVOK 20/10 Q1022

20240414_rjnt_02hl8300

今日のお客さん

20240414_rjnt_03hl8300

TWB9239 RKSI-RJNT HL8300 B737-8AL

20240414_rjnt_04hl8300

北風は弱いですが、RNP02でアプローチ

20240414_rjnt_05ja119w

JA119W AW139 富山県消防防災

朝方、高岡方面にフライトして、日向ぼっこ。午後から訓練があった模様。

20240414_rjnt_06ja4004

JA4004↑ C172P

20240414_rjnt_07ja182c

JA182C↑ C182S

20240414_rjnt_08ja82an
20240414_rjnt_09ja82an

ANA315 RJTT-RJNT JA82AN B737-881

20240414_rjnt_10hl8300
20240414_rjnt_11hl8300

TWB9240 RJNT-RKSI HL8300 B737-8AL

次のTwayさんは、17日木曜

RJNT 140200Z VRB02KT CAVOK 21/09 Q1021

20240414_rjnt_12ja82an
20240414_rjnt_13ja82an

ANA316 RJNT-RJTT JA82AN B737-881

RJNT 140300Z 02007KT 350V080 CAVOK 22/10 Q1021

20240414_rjnt_14ja66an
20240414_rjnt_15ja66an
20240414_rjnt_16ja66an

ANA1182 RJCC-RJNT JA66AN B737-881

20240414_rjnt_17ja525a

定期便の後おって、サークリング

20240414_rjnt_18ja525a
20240414_rjnt_19ja525a

JA525A RJOY-RJNT JA525A C525

RJNT 140400Z 36008KT 330V030 CAVOK 22/08 Q1021

20240414_rjnt_20ja66an
20240414_rjnt_21ja66an

ANA1181 RJNT-RJCC JA66AN B737-881

20240414_rjnt_22ja66an
20240414_rjnt_23ja525a
20240414_rjnt_24ja525a

JA525A RJNT-RJOY JA525A C525

この後、防災さんが自隊訓練の模様

 

|

« 定点 富山空港他 2024/4/13 sat | トップページ | 定点 富山空港 2024/4/15 mon »

富山空港」カテゴリの記事

コメント

コメントを書く



(ウェブ上には掲載しません)


コメントは記事投稿者が公開するまで表示されません。



« 定点 富山空港他 2024/4/13 sat | トップページ | 定点 富山空港 2024/4/15 mon »